Coral Coast — WDF5120 — position and weather

sailwx.info

Track history (hours):
 
Tides and Currents Weather Stations Pressure Air Temp Water Temp Dewpoint Dewpoint Depression Visibility Wind Speed Wind Dir Waves Ship Positions

Coral Coast

Owner: Dann MarineTowing, LC., Chesapeake City, MD. More information available from US FCC via Universal Licensing System and Coast Guard Vessel Documentation Center.

Last reported at 2015-Jul-04 20:34 UTC. Time now 2015-Jul-04 22:29 UTC.
Position N 33°54' W 077°07'.

Length 70 m; draft 5.3 m.

Type: Tug. MMSI: 367459570.

Date/timePositionNaut miles runAvg speedWind from/ knotsBaromVisibWave heightAir tempDewpointWater temp
2015-Jul-04 20:34N 33°54' W 077°07'  
2015-Jun-30 20:16N 33°34' W 077°40'27 9.0
2015-Jun-30 17:17N 33°50' W 077°15'18 9.1
2015-Jun-30 15:21N 34°01' W 076°58'10 8.9
2015-Jun-30 14:16N 34°07' W 076°49'  
2015-Jun-26 03:24N 38°39' W 074°43'20 9.5
2015-Jun-26 01:15N 38°57' W 074°31'7 9.6
2015-Jun-26 00:33N 39°03' W 074°28'9 9.3
2015-Jun-25 23:33N 39°11' W 074°22'9 9.2
2015-Jun-25 22:34N 39°19' W 074°16'9 9.0
2015-Jun-25 21:33N 39°27' W 074°10'9 8.9
2015-Jun-25 20:32N 39°35' W 074°04'9 9.0
2015-Jun-25 19:33N 39°43' W 073°60'10 9.0
2015-Jun-25 18:23N 39°53' W 073°57'7 8.9
2015-Jun-25 17:33N 40°01' W 073°56'19 9.1
2015-Jun-25 15:26N 40°20' W 073°52'8 9.1
2015-Jun-25 14:32N 40°25' W 073°43'9 9.0
2015-Jun-25 13:31N 40°29' W 073°33'18 9.1
2015-Jun-25 11:33N 40°35' W 073°10'9 9.3
2015-Jun-25 10:33N 40°38' W 072°59'9 9.4
2015-Jun-25 09:33N 40°42' W 072°48'9 9.4
2015-Jun-25 08:33N 40°45' W 072°36'9 9.3
2015-Jun-25 07:33N 40°49' W 072°25'9 9.4
2015-Jun-25 06:33N 40°52' W 072°13'10 9.6
2015-Jun-25 05:33N 40°56' W 072°01'9 9.5
2015-Jun-25 04:33N 40°60' W 071°50'10 9.7
2015-Jun-25 03:34N 41°04' W 071°39'9 9.4
2015-Jun-25 02:33N 41°10' W 071°29'10 9.6
2015-Jun-25 01:33N 41°20' W 071°26'9 9.0
2015-Jun-25 00:34N 41°28' W 071°22'10 8.8
2015-Jun-24 23:28N 41°37' W 071°18'8 8.6
2015-Jun-24 22:33N 41°44' W 071°22'  
Track history (hours):
 
Tides and Currents Weather Stations Pressure Air Temp Water Temp Dewpoint Dewpoint Depression Visibility Wind Speed Wind Dir Waves Ship Positions

Coral Coast

Owner: Dann MarineTowing, LC., Chesapeake City, MD. More information available from US FCC via Universal Licensing System and Coast Guard Vessel Documentation Center.

Last reported at 2015-Jul-04 20:34 UTC. Time now 2015-Jul-04 22:29 UTC.
Position N 33°54' W 077°07'.

Length 70 m; draft 5.3 m.

Type: Tug. MMSI: 367459570.

Date/timePositionNaut miles runAvg speedWind from/ knotsBaromVisibWave heightAir tempDewpointWater temp
2015-Jul-04 20:34N 33°54' W 077°07'  
2015-Jun-30 20:16N 33°34' W 077°40'27 9.0
2015-Jun-30 17:17N 33°50' W 077°15'18 9.1
2015-Jun-30 15:21N 34°01' W 076°58'10 8.9
2015-Jun-30 14:16N 34°07' W 076°49'  
2015-Jun-26 03:24N 38°39' W 074°43'20 9.5
2015-Jun-26 01:15N 38°57' W 074°31'7 9.6
2015-Jun-26 00:33N 39°03' W 074°28'9 9.3
2015-Jun-25 23:33N 39°11' W 074°22'9 9.2
2015-Jun-25 22:34N 39°19' W 074°16'9 9.0
2015-Jun-25 21:33N 39°27' W 074°10'9 8.9
2015-Jun-25 20:32N 39°35' W 074°04'9 9.0
2015-Jun-25 19:33N 39°43' W 073°60'10 9.0
2015-Jun-25 18:23N 39°53' W 073°57'7 8.9
2015-Jun-25 17:33N 40°01' W 073°56'19 9.1
2015-Jun-25 15:26N 40°20' W 073°52'8 9.1
2015-Jun-25 14:32N 40°25' W 073°43'9 9.0
2015-Jun-25 13:31N 40°29' W 073°33'18 9.1
2015-Jun-25 11:33N 40°35' W 073°10'9 9.3
2015-Jun-25 10:33N 40°38' W 072°59'9 9.4
2015-Jun-25 09:33N 40°42' W 072°48'9 9.4
2015-Jun-25 08:33N 40°45' W 072°36'9 9.3
2015-Jun-25 07:33N 40°49' W 072°25'9 9.4
2015-Jun-25 06:33N 40°52' W 072°13'10 9.6
2015-Jun-25 05:33N 40°56' W 072°01'9 9.5
2015-Jun-25 04:33N 40°60' W 071°50'10 9.7
2015-Jun-25 03:34N 41°04' W 071°39'9 9.4
2015-Jun-25 02:33N 41°10' W 071°29'10 9.6
2015-Jun-25 01:33N 41°20' W 071°26'9 9.0
2015-Jun-25 00:34N 41°28' W 071°22'10 8.8
2015-Jun-24 23:28N 41°37' W 071°18'8 8.6
2015-Jun-24 22:33N 41°44' W 071°22'  

Dump ship's entire track history